Hauptseite
METAR-TAF:

METAR-TAF

Flughäfen :

Flughafen Kairo

Kairo, Ägypten

Breite: 30-08N, Länge: 031-24E, Höhe: 64 m

Beobachtung

Neuester Wetterbericht von vor 27 Minuten, um 18:30 UTC
Wind 7 kt aus Nordost
Temperatur 14°C
Luftfeuchtigkeit 63%
Luftdruck 1022 hPa
Sichtweite 10 km oder mehr
Aufgelockert bewölkt in der Höhe von 2500 ft

METAR: HECA 181830Z 04007KT 9999 SCT025 14/07 Q1022 NOSIG

Zeit: 20:57 (18:57 UTC)

Prognose

Neuester Wetterbericht von vor 1 Stunde und 57 Minuten, um 17:00 UTC
Gültige Prognose vom 18 um 18 UTC bis 19 um 24 UTC
Wind 9 kt aus Nord/Nordost
Sichtweite 10 km oder mehr
Aufgelockert bewölkt in der Höhe von 2500 ft
Zeitweise
vom 19 um 00 UTC bis 19 um 06 UTC
Wind 3 kt aus unterschiedlichen Richtungen
Wahrscheinlichkeit 40% :
Zeitweise
vom 19 um 02 UTC bis 19 um 05 UTC

TAF: HECA 181700Z 1818/1924 03009KT 9999 SCT025 TEMPO 1900/1906 VRB03KT 2000BR NSC PROB40 TEMPO 1902/1905 0800FG VV///

Wetterbeobachtungen und Prognosen von mehr als 4000 Flughäfen (METAR und TAF Bericht).

Die verfügbaren Stationen werden durch gelbe und rote Markierungen auf der Karte dargestellt.

Führen Sie die Maus auf sie, um den Namen der Station zu sehen.

Darauf klicken, um die Beobachtung von Wetterbeobachtungen und Prognosen zu sehen.

Um die Karte zu ändern : klicken Sie auf den grünen Tasten mit einem schwarzen Kreuz Zum Vergrößern, auf den grünen Button mit einem Gedankenstrich zu verkleinern, oder auf die grünen Pfeile für benachbarte Karten.


METAR-TAF: